Huntingdon, Canada
Current Conditions -  °F | °C
As of 8:37 AM on Sunday 21 Dec 2014 (Local Time) from CYUL Reporting Station
Light Snow Light Snow  
Wind Chill: -17°   Ceiling: 700
Heat Index: -9°   Visibility: 3mi
Dew Point: -11°   Wind: 13mph
Humidity: 86%   Direction: 30°NNE
Pressure: 30.38"   Gusts: NA
Location:  45.08°N, 74.18°W
Report Text: CYUL 211337Z 03011KT 3SM -SN BR BKN007 OVC012 M09/M11 A3038 RMK SF5ST3 SLP292
Loading
Personal Weather Stations






























Interactive Weather Map New forecast layout! Learn more

10-Day Weather Forecast

Advertisements
Track Severe Weather on mobile